createdAt,value
2023-01-29T00:01:04.214Z,102005.13
2023-01-29T00:03:07.107Z,102007.16
2023-01-29T00:05:26.452Z,102005.28
2023-01-29T00:07:30.037Z,102012.50
2023-01-29T00:09:32.807Z,102010.16
2023-01-29T00:11:36.517Z,102004.47
2023-01-29T00:13:40.638Z,102002.78
2023-01-29T00:15:43.580Z,101995.88
2023-01-29T00:17:46.349Z,102002.66
2023-01-29T00:19:49.188Z,101993.44
2023-01-29T00:21:52.058Z,101996.13
2023-01-29T00:23:56.129Z,101983.63
2023-01-29T00:26:00.914Z,101984.94
2023-01-29T00:28:03.757Z,101982.03
2023-01-29T00:30:13.203Z,101990.75
2023-01-29T00:32:16.222Z,101993.19
2023-01-29T00:34:19.199Z,101994.72
2023-01-29T00:36:22.794Z,101996.06
2023-01-29T00:38:25.524Z,101997.59
2023-01-29T00:40:28.511Z,101997.84
2023-01-29T00:42:48.728Z,101995.28
2023-01-29T00:44:59.414Z,101994.38
2023-01-29T00:47:04.400Z,101984.03
2023-01-29T00:49:08.102Z,101985.56
2023-01-29T00:51:10.961Z,101996.63
2023-01-29T00:53:13.749Z,101997.28
2023-01-29T00:55:16.651Z,102003.06
2023-01-29T00:57:19.637Z,102004.53
2023-01-29T00:59:22.404Z,101998.38
2023-01-29T01:01:39.787Z,102004.97
2023-01-29T01:03:43.944Z,101999.97
2023-01-29T01:05:46.771Z,102013.44
2023-01-29T01:07:51.729Z,102018.81
2023-01-29T01:10:13.861Z,102017.25
2023-01-29T01:12:16.875Z,102011.81
2023-01-29T01:14:20.388Z,102009.78
2023-01-29T01:16:25.417Z,102012.47
2023-01-29T01:18:30.858Z,102017.56
2023-01-29T01:20:36.581Z,102018.25
2023-01-29T01:22:39.734Z,102015.91
2023-01-29T01:24:42.582Z,102010.56
2023-01-29T01:26:45.367Z,102004.56
2023-01-29T01:28:48.462Z,102005.34
2023-01-29T01:30:51.302Z,102011.72
2023-01-29T01:32:54.558Z,102004.25
2023-01-29T01:34:57.365Z,101996.22
2023-01-29T01:37:01.548Z,102002.56
2023-01-29T01:39:04.960Z,102002.06
2023-01-29T01:41:07.774Z,102001.63
2023-01-29T01:43:11.388Z,101999.41
2023-01-29T01:45:20.594Z,102000.00
2023-01-29T01:47:28.914Z,102002.97
2023-01-29T01:49:32.171Z,102006.50
2023-01-29T01:51:39.928Z,102007.63
2023-01-29T01:53:49.078Z,102005.38
2023-01-29T01:55:57.132Z,102003.66
2023-01-29T01:58:06.174Z,101996.94
2023-01-29T02:00:13.227Z,101995.56
2023-01-29T02:02:36.715Z,101994.69
2023-01-29T02:05:04.897Z,101993.09
2023-01-29T02:07:28.517Z,101991.88
2023-01-29T02:09:36.306Z,101996.22
2023-01-29T02:11:39.849Z,101995.53
2023-01-29T02:13:43.639Z,101982.41
2023-01-29T02:15:48.757Z,101984.09
2023-01-29T02:17:52.045Z,101981.13
2023-01-29T02:20:08.389Z,101975.75
2023-01-29T02:22:36.801Z,101980.88
2023-01-29T02:25:00.647Z,101984.59
2023-01-29T02:27:10.383Z,101978.69
2023-01-29T02:29:27.184Z,101972.75
2023-01-29T02:31:38.417Z,101975.06
2023-01-29T02:33:53.167Z,101955.69
2023-01-29T02:36:02.812Z,101962.13
2023-01-29T02:38:13.959Z,101960.47
2023-01-29T02:40:26.140Z,101959.44
2023-01-29T02:42:36.745Z,101959.66
2023-01-29T02:44:48.655Z,101958.94
2023-01-29T02:46:59.594Z,101951.00
2023-01-29T02:49:10.923Z,101952.88
2023-01-29T02:51:20.899Z,101959.63
2023-01-29T02:53:30.458Z,101954.06
2023-01-29T02:55:37.723Z,101947.13
2023-01-29T02:57:44.141Z,101949.84
2023-01-29T02:59:54.864Z,101954.75
2023-01-29T03:02:03.397Z,101958.41
2023-01-29T03:04:11.427Z,101958.53
2023-01-29T03:06:22.440Z,101957.84
2023-01-29T03:08:42.708Z,101958.72
2023-01-29T03:10:52.802Z,101957.22
2023-01-29T03:13:01.517Z,101959.44
2023-01-29T03:15:13.992Z,101961.88
2023-01-29T03:17:23.782Z,101963.78
2023-01-29T03:19:36.056Z,101967.25
2023-01-29T03:22:00.052Z,101961.75
2023-01-29T03:24:25.048Z,101967.31
2023-01-29T03:26:45.795Z,101971.38
2023-01-29T03:29:06.910Z,101965.50
2023-01-29T03:31:34.237Z,101974.44
2023-01-29T03:33:43.101Z,101984.88
2023-01-29T03:35:53.073Z,101986.75
2023-01-29T03:37:56.877Z,101981.09
2023-01-29T03:39:59.890Z,101981.09
2023-01-29T03:42:10.727Z,101982.03
2023-01-29T03:44:18.857Z,101988.03
2023-01-29T03:46:29.989Z,101981.59
2023-01-29T03:48:37.766Z,101983.59
2023-01-29T03:50:53.688Z,101986.09
2023-01-29T03:53:01.704Z,101983.38
2023-01-29T03:55:14.693Z,101977.13
2023-01-29T03:57:27.694Z,101991.06
2023-01-29T03:59:40.520Z,101989.75
2023-01-29T04:02:01.196Z,101993.44
2023-01-29T04:04:11.269Z,101993.06
2023-01-29T04:06:19.666Z,101993.59
2023-01-29T04:08:41.811Z,101999.25
2023-01-29T04:10:48.544Z,102002.44
2023-01-29T04:12:57.841Z,102001.47
2023-01-29T04:15:03.100Z,102007.50
2023-01-29T04:17:12.085Z,101997.25
2023-01-29T04:19:31.193Z,101994.56
2023-01-29T04:21:37.101Z,101989.69
2023-01-29T04:23:39.873Z,101989.91
2023-01-29T04:25:50.263Z,101987.28
2023-01-29T04:28:02.758Z,101986.59
2023-01-29T04:30:20.041Z,101975.97
2023-01-29T04:32:30.015Z,101975.63
2023-01-29T04:34:41.439Z,101979.06
2023-01-29T04:36:56.258Z,101984.16
2023-01-29T04:39:11.063Z,101989.16
2023-01-29T04:41:22.545Z,101995.72
2023-01-29T04:43:30.456Z,101989.44
2023-01-29T04:45:46.222Z,101982.06
2023-01-29T04:47:59.013Z,101979.56
2023-01-29T04:50:10.471Z,101974.09
2023-01-29T04:52:22.023Z,101971.22
2023-01-29T04:54:33.310Z,101957.00
2023-01-29T04:56:43.097Z,101950.91
2023-01-29T04:58:50.697Z,101941.22
2023-01-29T05:00:55.329Z,101939.44
2023-01-29T05:03:01.473Z,101947.88
2023-01-29T05:05:05.843Z,101950.91
2023-01-29T05:07:12.677Z,101950.91
2023-01-29T05:09:17.630Z,101945.03
2023-01-29T05:11:21.362Z,101937.00
2023-01-29T05:13:26.217Z,101932.53
2023-01-29T05:15:35.232Z,101949.03
2023-01-29T05:17:38.074Z,101955.03
2023-01-29T05:19:42.360Z,101962.19
2023-01-29T05:21:47.827Z,101948.22
2023-01-29T05:24:10.100Z,101961.72
2023-01-29T05:26:30.285Z,101968.38
2023-01-29T05:28:33.080Z,101961.47
2023-01-29T05:30:38.198Z,101968.13
2023-01-29T05:32:41.288Z,101970.69
2023-01-29T05:34:45.488Z,101977.59
2023-01-29T05:36:48.343Z,101985.28
2023-01-29T05:38:51.140Z,101988.06
2023-01-29T05:40:54.329Z,101994.44
2023-01-29T05:42:57.290Z,101982.66
2023-01-29T05:45:00.304Z,101981.50
2023-01-29T05:47:03.579Z,101973.72
2023-01-29T05:49:07.016Z,101973.84
2023-01-29T05:51:11.208Z,101972.44
2023-01-29T05:53:14.064Z,101974.22
2023-01-29T05:55:16.951Z,101975.97
2023-01-29T05:57:20.125Z,101975.97
2023-01-29T05:59:22.935Z,101970.97
2023-01-29T06:01:27.151Z,101971.09
2023-01-29T06:03:30.167Z,101976.22
2023-01-29T06:05:33.303Z,101976.34
2023-01-29T06:07:37.528Z,101965.56
2023-01-29T06:09:41.416Z,101960.44
2023-01-29T06:11:44.300Z,101959.56
2023-01-29T06:13:47.815Z,101965.69
2023-01-29T06:15:50.671Z,101966.47
2023-01-29T06:17:54.505Z,101966.59
2023-01-29T06:19:57.331Z,101974.91
2023-01-29T06:22:00.243Z,101982.84
2023-01-29T06:24:04.791Z,101992.78
2023-01-29T06:26:10.109Z,101979.97
2023-01-29T06:28:12.909Z,101983.06
2023-01-29T06:30:16.335Z,101985.41
2023-01-29T06:32:19.316Z,101984.50
2023-01-29T06:34:22.129Z,101975.38
2023-01-29T06:36:25.000Z,101976.53
2023-01-29T06:38:27.976Z,101963.97
2023-01-29T06:40:32.074Z,101956.50
2023-01-29T06:42:36.193Z,101970.19
2023-01-29T06:44:38.985Z,101965.88
2023-01-29T06:46:42.001Z,101961.41
2023-01-29T06:48:44.812Z,101966.41
2023-01-29T06:50:49.336Z,101958.22
2023-01-29T06:52:52.170Z,101963.22
2023-01-29T06:54:55.034Z,101958.91
2023-01-29T06:56:59.190Z,101963.13
2023-01-29T06:59:02.078Z,101963.91
2023-01-29T07:01:06.467Z,101972.34
2023-01-29T07:03:10.969Z,101979.94
2023-01-29T07:05:13.671Z,101976.47
2023-01-29T07:07:16.537Z,101978.25
2023-01-29T07:09:19.427Z,101979.03
2023-01-29T07:11:22.251Z,101980.56
2023-01-29T07:13:26.409Z,101987.13
2023-01-29T07:15:29.464Z,101983.13
2023-01-29T07:17:32.327Z,101986.72
2023-01-29T07:19:35.117Z,101977.13
2023-01-29T07:21:38.663Z,101976.59
2023-01-29T07:23:41.998Z,101979.41
2023-01-29T07:25:44.877Z,101975.16
2023-01-29T07:27:47.878Z,101977.94
2023-01-29T07:29:52.073Z,101976.75
2023-01-29T07:31:54.954Z,101968.16
2023-01-29T07:33:57.772Z,101977.19
2023-01-29T07:36:00.703Z,101979.22
2023-01-29T07:38:03.623Z,101978.41
2023-01-29T07:40:11.197Z,101983.06
2023-01-29T07:42:14.063Z,101986.28
2023-01-29T07:44:17.053Z,101987.19
2023-01-29T07:46:21.280Z,101984.88
2023-01-29T07:48:24.190Z,101992.97
2023-01-29T07:50:28.068Z,101999.19
2023-01-29T07:52:32.299Z,102002.78
2023-01-29T07:54:35.119Z,102000.94
2023-01-29T07:56:37.887Z,102003.16
2023-01-29T07:58:40.680Z,102008.28
2023-01-29T08:00:43.629Z,102015.94
2023-01-29T08:02:47.808Z,102010.78
2023-01-29T08:04:50.705Z,102019.16
2023-01-29T08:06:53.499Z,102011.72
2023-01-29T08:08:57.424Z,102015.06
2023-01-29T08:11:02.435Z,102014.84
2023-01-29T08:13:06.267Z,102007.69
2023-01-29T08:15:10.328Z,102018.03
2023-01-29T08:17:13.624Z,102018.38
2023-01-29T08:19:17.863Z,102015.31
2023-01-29T08:21:20.659Z,102020.44
2023-01-29T08:23:23.531Z,102018.84
2023-01-29T08:25:26.874Z,102019.09
2023-01-29T08:27:30.042Z,102023.81
2023-01-29T08:29:32.893Z,102014.47
2023-01-29T08:31:35.993Z,102012.06
2023-01-29T08:33:39.536Z,102005.19
2023-01-29T08:35:43.730Z,102020.06
2023-01-29T08:37:54.009Z,102013.81
2023-01-29T08:39:56.871Z,102013.22
2023-01-29T08:41:59.791Z,102008.31
2023-01-29T08:44:04.305Z,102019.75
2023-01-29T08:46:08.432Z,102026.91
2023-01-29T08:48:11.831Z,102030.31
2023-01-29T08:50:15.370Z,102036.16
2023-01-29T08:52:19.745Z,102042.97
2023-01-29T08:54:22.560Z,102040.66
2023-01-29T08:56:26.766Z,102038.34
2023-01-29T08:58:29.647Z,102031.28
2023-01-29T09:00:33.169Z,102022.19
2023-01-29T09:02:36.048Z,102006.91
2023-01-29T09:04:38.830Z,102002.13
2023-01-29T09:06:41.604Z,101986.44
2023-01-29T09:08:45.729Z,101965.78
2023-01-29T09:10:48.555Z,101965.91
2023-01-29T09:12:51.479Z,101959.00
2023-01-29T09:14:54.326Z,101961.22
2023-01-29T09:16:57.210Z,101963.44
2023-01-29T09:19:00.014Z,101956.66
2023-01-29T09:21:03.134Z,101955.63
2023-01-29T09:23:07.415Z,101954.09
2023-01-29T09:25:11.732Z,101960.88
2023-01-29T09:27:14.487Z,101960.66
2023-01-29T09:29:17.299Z,101969.13
2023-01-29T09:31:20.249Z,101988.09
2023-01-29T09:33:24.627Z,101990.44
2023-01-29T09:35:27.568Z,101981.41
2023-01-29T09:37:30.371Z,101979.97
2023-01-29T09:39:33.134Z,101987.91
2023-01-29T09:41:51.571Z,101989.91
2023-01-29T09:43:58.858Z,102002.94
2023-01-29T09:46:06.502Z,102000.81
2023-01-29T09:48:13.627Z,102002.84
2023-01-29T09:50:20.485Z,102000.59
2023-01-29T09:52:27.177Z,102005.09
2023-01-29T09:54:33.924Z,102002.63
2023-01-29T09:56:36.744Z,102010.75
2023-01-29T09:58:43.322Z,102006.16
2023-01-29T10:00:57.473Z,102005.97
2023-01-29T10:03:20.660Z,102024.22
2023-01-29T10:05:38.417Z,102028.69
2023-01-29T10:08:10.945Z,102036.94
2023-01-29T10:10:36.660Z,102026.03
2023-01-29T10:12:59.136Z,102030.56
2023-01-29T10:15:15.219Z,102026.47
2023-01-29T10:17:36.226Z,102027.47
2023-01-29T10:19:57.851Z,102029.38
2023-01-29T10:22:19.731Z,102024.16
2023-01-29T10:24:33.248Z,102026.28
2023-01-29T10:26:38.631Z,102019.13
2023-01-29T10:28:46.103Z,102013.22
2023-01-29T10:30:52.630Z,102014.66
2023-01-29T10:32:57.199Z,102007.09
2023-01-29T10:35:04.211Z,102004.84
2023-01-29T10:37:18.363Z,101998.38
2023-01-29T10:39:23.026Z,101989.56
2023-01-29T10:41:42.625Z,102000.13
2023-01-29T10:44:01.450Z,101995.34
2023-01-29T10:46:20.216Z,101979.38
2023-01-29T10:48:42.079Z,101985.44
2023-01-29T10:50:49.897Z,101971.84
2023-01-29T10:53:12.098Z,101978.06
2023-01-29T10:55:27.997Z,101973.72
2023-01-29T10:57:41.299Z,101976.72
2023-01-29T10:59:58.055Z,101968.25
2023-01-29T11:02:03.288Z,101965.34
2023-01-29T11:04:07.674Z,101967.59
2023-01-29T11:06:17.590Z,101960.34
2023-01-29T11:08:23.432Z,101950.28
2023-01-29T11:10:26.569Z,101942.59
2023-01-29T11:12:33.311Z,101941.25
2023-01-29T11:14:43.712Z,101936.00
2023-01-29T11:16:48.899Z,101939.50
2023-01-29T11:18:58.341Z,101933.38
2023-01-29T11:21:03.666Z,101931.00
2023-01-29T11:23:07.691Z,101928.19
2023-01-29T11:25:17.184Z,101933.69
2023-01-29T11:27:26.459Z,101932.09
2023-01-29T11:29:40.398Z,101931.22
2023-01-29T11:31:43.500Z,101919.16
2023-01-29T11:33:47.420Z,101916.03
2023-01-29T11:35:52.485Z,101914.59
2023-01-29T11:38:08.576Z,101911.34
2023-01-29T11:40:36.092Z,101900.25
2023-01-29T11:42:38.891Z,101893.97
2023-01-29T11:44:43.844Z,101889.94
2023-01-29T11:46:46.800Z,101886.25
2023-01-29T11:48:58.936Z,101872.91
2023-01-29T11:51:12.234Z,101869.88
2023-01-29T11:53:28.370Z,101873.44
2023-01-29T11:55:48.584Z,101862.38
2023-01-29T11:57:55.873Z,101864.56
2023-01-29T12:00:02.964Z,101846.66
2023-01-29T12:02:27.958Z,101848.88
2023-01-29T12:04:31.341Z,101853.38
2023-01-29T12:06:38.866Z,101843.69
2023-01-29T12:08:41.681Z,101847.03
2023-01-29T12:10:45.282Z,101838.28
2023-01-29T12:12:49.047Z,101834.50
2023-01-29T12:15:03.403Z,101830.44
2023-01-29T12:17:11.463Z,101827.75
2023-01-29T12:19:26.226Z,101829.50
2023-01-29T12:21:37.839Z,101825.16
2023-01-29T12:23:48.065Z,101824.13
2023-01-29T12:25:57.489Z,101822.81
2023-01-29T12:28:04.879Z,101821.47
2023-01-29T12:30:17.973Z,101816.59
2023-01-29T12:32:33.092Z,101816.97
2023-01-29T12:34:46.343Z,101811.06
2023-01-29T12:36:54.766Z,101813.25
2023-01-29T12:38:59.022Z,101805.78
2023-01-29T12:41:08.614Z,101813.72
2023-01-29T12:43:17.170Z,101820.16
2023-01-29T12:45:23.601Z,101811.44
2023-01-29T12:47:32.013Z,101805.69
2023-01-29T12:49:39.403Z,101808.00
2023-01-29T12:51:50.832Z,101803.94
2023-01-29T12:53:59.708Z,101802.97
2023-01-29T12:56:09.083Z,101802.97
2023-01-29T12:58:16.475Z,101791.09
2023-01-29T13:00:23.426Z,101783.50
2023-01-29T13:02:34.812Z,101782.28
2023-01-29T13:04:40.709Z,101768.63
2023-01-29T13:06:49.142Z,101766.34
2023-01-29T13:08:54.938Z,101764.34
2023-01-29T13:11:02.649Z,101766.44
2023-01-29T13:13:15.115Z,101775.25
2023-01-29T13:15:24.216Z,101772.69
2023-01-29T13:17:32.041Z,101778.00
2023-01-29T13:19:39.367Z,101776.94
2023-01-29T13:21:44.830Z,101777.91
2023-01-29T13:23:50.906Z,101768.97
2023-01-29T13:25:54.947Z,101754.94
2023-01-29T13:27:59.233Z,101744.97
2023-01-29T13:30:02.547Z,101754.41
2023-01-29T13:32:06.379Z,101744.69
2023-01-29T13:34:15.986Z,101748.06
2023-01-29T13:36:25.265Z,101746.22
2023-01-29T13:38:30.483Z,101746.84
2023-01-29T13:40:35.549Z,101734.88
2023-01-29T13:42:44.121Z,101742.28
2023-01-29T13:44:51.403Z,101743.91
2023-01-29T13:46:58.125Z,101742.69
2023-01-29T13:49:04.837Z,101750.41
2023-01-29T13:51:15.461Z,101746.38
2023-01-29T13:53:23.898Z,101745.56
2023-01-29T13:55:31.948Z,101744.19
2023-01-29T13:57:50.302Z,101734.13
2023-01-29T13:59:56.357Z,101724.44
2023-01-29T14:02:04.745Z,101724.53
2023-01-29T14:04:25.465Z,101714.66
2023-01-29T14:06:48.378Z,101708.13
2023-01-29T14:08:51.189Z,101703.59
2023-01-29T14:11:37.439Z,101706.44
2023-01-29T14:13:41.927Z,101694.00
2023-01-29T14:15:48.616Z,101704.16
2023-01-29T14:18:13.811Z,101700.91
2023-01-29T14:20:22.349Z,101705.09
2023-01-29T14:22:28.642Z,101700.34
2023-01-29T14:24:32.426Z,101706.34
2023-01-29T14:26:45.762Z,101704.97
2023-01-29T14:28:57.619Z,101709.91
2023-01-29T14:31:03.889Z,101705.47
2023-01-29T14:33:07.113Z,101704.78
2023-01-29T14:35:20.683Z,101707.75
2023-01-29T14:37:29.993Z,101707.06
2023-01-29T14:39:37.786Z,101699.44
2023-01-29T14:41:40.683Z,101698.63
2023-01-29T14:43:43.637Z,101698.44
2023-01-29T14:45:47.449Z,101702.22
2023-01-29T14:47:57.214Z,101703.78
2023-01-29T14:50:01.751Z,101699.22
2023-01-29T14:52:05.516Z,101692.09
2023-01-29T14:54:19.932Z,101696.84
2023-01-29T14:56:30.371Z,101690.53
2023-01-29T14:58:39.668Z,101695.88
2023-01-29T15:00:47.170Z,101698.53
2023-01-29T15:03:01.715Z,101694.00
2023-01-29T15:05:12.485Z,101690.84
2023-01-29T15:07:29.239Z,101689.66
2023-01-29T15:09:41.817Z,101689.53
2023-01-29T15:11:53.427Z,101697.03
2023-01-29T15:14:01.871Z,101697.25
2023-01-29T15:16:10.644Z,101692.09
2023-01-29T15:18:18.397Z,101693.13
2023-01-29T15:20:32.111Z,101693.88
2023-01-29T15:22:45.538Z,101699.72
2023-01-29T15:25:02.668Z,101703.28
2023-01-29T15:27:08.456Z,101695.78
2023-01-29T15:29:24.393Z,101690.00
2023-01-29T15:31:28.405Z,101681.72
2023-01-29T15:33:32.495Z,101689.81
2023-01-29T15:35:38.778Z,101699.28
2023-01-29T15:37:41.670Z,101695.41
2023-01-29T15:39:45.077Z,101706.13
2023-01-29T15:41:48.725Z,101704.91
2023-01-29T15:43:57.738Z,101704.59
2023-01-29T15:46:03.275Z,101703.72
2023-01-29T15:48:09.266Z,101703.63
2023-01-29T15:50:13.721Z,101693.22
2023-01-29T15:52:21.544Z,101699.19
2023-01-29T15:54:25.833Z,101692.81
2023-01-29T15:56:32.926Z,101686.72
2023-01-29T15:58:35.984Z,101690.16
2023-01-29T16:00:39.000Z,101680.56
2023-01-29T16:02:42.885Z,101682.16
2023-01-29T16:04:46.631Z,101672.38
2023-01-29T16:06:52.012Z,101664.66
2023-01-29T16:08:56.536Z,101661.03
2023-01-29T16:11:02.514Z,101661.69
2023-01-29T16:13:05.674Z,101658.84
2023-01-29T16:15:31.498Z,101657.25
2023-01-29T16:17:35.988Z,101652.59
2023-01-29T16:19:38.831Z,101645.81
2023-01-29T16:21:45.820Z,101645.69
2023-01-29T16:23:51.478Z,101650.59
2023-01-29T16:26:02.295Z,101651.31
2023-01-29T16:28:08.123Z,101649.31
2023-01-29T16:30:15.397Z,101637.84
2023-01-29T16:32:18.485Z,101637.63
2023-01-29T16:34:27.616Z,101645.31
2023-01-29T16:36:30.524Z,101630.41
2023-01-29T16:38:36.389Z,101625.75
2023-01-29T16:40:40.708Z,101628.91
2023-01-29T16:42:46.524Z,101627.13
2023-01-29T16:44:53.206Z,101625.34
2023-01-29T16:46:56.031Z,101624.34
2023-01-29T16:48:59.288Z,101624.25
2023-01-29T16:51:06.443Z,101619.78
2023-01-29T16:53:13.947Z,101625.59
2023-01-29T16:55:25.483Z,101620.16
2023-01-29T16:57:33.135Z,101625.19
2023-01-29T16:59:40.308Z,101624.88
2023-01-29T17:01:44.355Z,101621.28
2023-01-29T17:03:55.825Z,101621.28
2023-01-29T17:05:58.953Z,101617.75
2023-01-29T17:08:01.994Z,101613.50
2023-01-29T17:10:07.654Z,101623.63
2023-01-29T17:12:19.832Z,101620.09
2023-01-29T17:14:25.899Z,101623.44
2023-01-29T17:16:33.136Z,101628.56
2023-01-29T17:18:35.999Z,101630.34
2023-01-29T17:20:38.858Z,101633.47
2023-01-29T17:22:41.715Z,101636.81
2023-01-29T17:24:44.860Z,101629.81
2023-01-29T17:26:49.424Z,101630.50
2023-01-29T17:28:52.652Z,101634.59
2023-01-29T17:31:05.834Z,101627.81
2023-01-29T17:33:16.038Z,101630.16
2023-01-29T17:35:19.180Z,101631.81
2023-01-29T17:37:22.243Z,101639.72
2023-01-29T17:39:25.518Z,101654.31
2023-01-29T17:41:30.807Z,101652.53
2023-01-29T17:43:34.042Z,101662.00
2023-01-29T17:45:36.843Z,101663.91
2023-01-29T17:47:39.641Z,101666.56
2023-01-29T17:49:44.314Z,101672.69
2023-01-29T17:51:47.122Z,101672.47
2023-01-29T17:53:49.845Z,101676.72
2023-01-29T17:55:52.717Z,101683.53
2023-01-29T17:57:55.466Z,101680.97
2023-01-29T17:59:58.300Z,101689.31
2023-01-29T18:02:01.251Z,101684.09
2023-01-29T18:04:04.819Z,101687.41
2023-01-29T18:06:09.915Z,101692.31
2023-01-29T18:08:17.501Z,101693.91
2023-01-29T18:10:22.943Z,101690.88
2023-01-29T18:12:25.860Z,101697.69
2023-01-29T18:14:28.682Z,101695.91
2023-01-29T18:16:37.086Z,101691.56
2023-01-29T18:18:40.404Z,101689.91
2023-01-29T18:20:44.958Z,101690.00
2023-01-29T18:22:49.178Z,101690.78
2023-01-29T18:24:52.036Z,101690.56
2023-01-29T18:26:54.912Z,101680.19
2023-01-29T18:28:57.748Z,101682.56
2023-01-29T18:31:02.274Z,101674.75
2023-01-29T18:33:05.377Z,101673.88
2023-01-29T18:35:09.572Z,101680.88
2023-01-29T18:37:13.123Z,101670.50
2023-01-29T18:39:17.642Z,101676.75
2023-01-29T18:41:20.571Z,101668.16
2023-01-29T18:43:26.195Z,101674.09
2023-01-29T18:45:29.824Z,101668.28
2023-01-29T18:47:32.685Z,101668.84
2023-01-29T18:49:38.711Z,101678.75
2023-01-29T18:51:41.461Z,101677.00
2023-01-29T18:53:46.534Z,101673.31
2023-01-29T18:55:58.696Z,101674.06
2023-01-29T18:58:26.112Z,101674.78
2023-01-29T19:00:25.000Z,101682.34
2023-01-29T19:02:27.784Z,101677.22
2023-01-29T19:04:30.672Z,101680.56
2023-01-29T19:06:35.728Z,101687.22
2023-01-29T19:08:40.904Z,101674.31
2023-01-29T19:10:43.702Z,101675.97
2023-01-29T19:12:47.824Z,101675.97
2023-01-29T19:14:50.651Z,101677.56
2023-01-29T19:16:53.422Z,101676.53
2023-01-29T19:18:56.625Z,101674.78
2023-01-29T19:20:59.423Z,101677.06
2023-01-29T19:23:02.191Z,101683.00
2023-01-29T19:25:06.132Z,101679.41
2023-01-29T19:27:08.929Z,101679.41
2023-01-29T19:29:13.190Z,101674.53
2023-01-29T19:31:15.983Z,101679.63
2023-01-29T19:33:18.901Z,101672.75
2023-01-29T19:35:21.658Z,101672.75
2023-01-29T19:37:25.000Z,101669.28
2023-01-29T19:39:29.865Z,101661.50
2023-01-29T19:41:33.300Z,101652.28
2023-01-29T19:43:38.047Z,101655.63
2023-01-29T19:45:50.424Z,101653.06
2023-01-29T19:47:55.034Z,101646.94
2023-01-29T19:49:57.910Z,101657.19
2023-01-29T19:52:01.077Z,101656.38
2023-01-29T19:54:04.069Z,101657.84
2023-01-29T19:56:08.995Z,101661.16
2023-01-29T19:58:11.722Z,101653.59
2023-01-29T20:00:17.345Z,101655.38
2023-01-29T20:02:21.612Z,101653.81
2023-01-29T20:04:24.445Z,101653.81
2023-01-29T20:06:30.850Z,101656.25
2023-01-29T20:08:35.526Z,101655.50
2023-01-29T20:10:38.522Z,101658.06
2023-01-29T20:12:41.312Z,101652.94
2023-01-29T20:14:48.732Z,101656.25
2023-01-29T20:16:51.481Z,101656.81
2023-01-29T20:18:55.648Z,101655.06
2023-01-29T20:21:20.367Z,101648.69
2023-01-29T20:23:36.607Z,101648.69
2023-01-29T20:25:40.688Z,101650.47
2023-01-29T20:27:43.569Z,101647.16
2023-01-29T20:29:46.581Z,101646.34
2023-01-29T20:31:49.462Z,101650.94
2023-01-29T20:33:52.374Z,101648.91
2023-01-29T20:35:57.804Z,101647.16
2023-01-29T20:38:00.945Z,101643.91
2023-01-29T20:40:03.771Z,101647.38
2023-01-29T20:42:06.912Z,101641.34
2023-01-29T20:44:09.869Z,101645.47
2023-01-29T20:46:13.370Z,101644.44
2023-01-29T20:48:17.424Z,101645.78
2023-01-29T20:50:20.548Z,101646.69
2023-01-29T20:52:25.188Z,101641.66
2023-01-29T20:54:29.826Z,101656.38
2023-01-29T20:56:39.296Z,101659.81
2023-01-29T20:58:47.484Z,101653.81
2023-01-29T21:00:50.738Z,101651.59
2023-01-29T21:02:53.669Z,101656.03
2023-01-29T21:04:56.581Z,101654.47
2023-01-29T21:06:59.354Z,101660.50
2023-01-29T21:09:03.543Z,101661.59
2023-01-29T21:11:08.917Z,101652.06
2023-01-29T21:13:12.188Z,101648.03
2023-01-29T21:15:15.154Z,101655.06
2023-01-29T21:17:17.950Z,101639.81
2023-01-29T21:19:23.534Z,101637.03
2023-01-29T21:21:26.650Z,101638.03
2023-01-29T21:23:29.542Z,101638.34
2023-01-29T21:25:33.756Z,101639.16
2023-01-29T21:27:37.200Z,101634.47
2023-01-29T21:29:40.073Z,101627.34
2023-01-29T21:31:43.660Z,101624.56
2023-01-29T21:33:46.529Z,101619.88
2023-01-29T21:35:58.488Z,101619.34
2023-01-29T21:38:01.301Z,101621.91
2023-01-29T21:40:04.511Z,101614.78
2023-01-29T21:42:26.321Z,101609.66
2023-01-29T21:44:29.201Z,101601.00
2023-01-29T21:46:32.136Z,101611.78
2023-01-29T21:48:34.977Z,101615.53
2023-01-29T21:50:38.347Z,101610.19
2023-01-29T21:52:41.221Z,101608.19
2023-01-29T21:54:46.853Z,101607.31
2023-01-29T21:56:49.880Z,101604.66
2023-01-29T21:58:54.010Z,101597.97
2023-01-29T22:00:57.091Z,101587.50
2023-01-29T22:03:19.857Z,101565.28
2023-01-29T22:05:22.798Z,101570.41
2023-01-29T22:07:25.572Z,101566.81
2023-01-29T22:09:28.351Z,101572.81
2023-01-29T22:11:31.531Z,101558.81
2023-01-29T22:13:34.505Z,101560.59
2023-01-29T22:15:38.701Z,101561.38
2023-01-29T22:17:42.174Z,101552.56
2023-01-29T22:19:45.006Z,101555.94
2023-01-29T22:21:47.857Z,101563.59
2023-01-29T22:23:50.784Z,101569.47
2023-01-29T22:25:53.629Z,101565.59
2023-01-29T22:27:56.422Z,101549.34
2023-01-29T22:29:59.191Z,101539.22
2023-01-29T22:32:03.368Z,101531.56
2023-01-29T22:34:06.243Z,101541.69
2023-01-29T22:36:09.814Z,101543.34
2023-01-29T22:38:12.648Z,101542.34
2023-01-29T22:40:15.959Z,101531.34
2023-01-29T22:42:19.725Z,101534.91
2023-01-29T22:44:22.530Z,101532.34
2023-01-29T22:46:25.344Z,101531.56
2023-01-29T22:48:30.542Z,101523.88
2023-01-29T22:50:33.374Z,101533.22
2023-01-29T22:52:39.365Z,101522.56
2023-01-29T22:54:43.526Z,101511.88
2023-01-29T22:56:46.312Z,101516.53
2023-01-29T22:58:51.681Z,101508.53
2023-01-29T23:00:54.478Z,101507.41
2023-01-29T23:02:57.305Z,101504.63
2023-01-29T23:05:01.469Z,101498.28
2023-01-29T23:07:04.760Z,101483.03
2023-01-29T23:09:07.908Z,101475.00
2023-01-29T23:11:15.731Z,101465.41
2023-01-29T23:13:18.546Z,101465.53
2023-01-29T23:15:21.391Z,101469.75
2023-01-29T23:17:27.598Z,101466.63
2023-01-29T23:19:30.478Z,101461.25
2023-01-29T23:21:34.861Z,101455.47
2023-01-29T23:23:39.029Z,101467.84
2023-01-29T23:25:59.306Z,101468.84
2023-01-29T23:28:02.113Z,101465.66
2023-01-29T23:30:06.530Z,101460.31
2023-01-29T23:32:10.277Z,101463.66
2023-01-29T23:34:13.617Z,101462.47
2023-01-29T23:36:16.519Z,101445.78
2023-01-29T23:38:20.735Z,101436.31
2023-01-29T23:40:23.680Z,101433.38
2023-01-29T23:42:26.625Z,101440.72
2023-01-29T23:44:29.413Z,101430.28
2023-01-29T23:46:32.358Z,101427.25
2023-01-29T23:48:35.198Z,101419.22
2023-01-29T23:50:37.988Z,101429.25
2023-01-29T23:52:40.830Z,101432.69
2023-01-29T23:54:44.984Z,101436.81
2023-01-29T23:56:47.855Z,101434.00
2023-01-29T23:58:54.699Z,101441.69
